sensor_id;sensor_type;location;lat;lon;timestamp;pressure;altitude;pressure_sealevel;temperature;humidity
39177;BME280;24904;52.208;21.192;2023-02-20T00:04:07;100610.95;;;1.48;68.02
39177;BME280;24904;52.208;21.192;2023-02-20T00:09:13;100600.50;;;1.40;68.00
39177;BME280;24904;52.208;21.192;2023-02-20T00:14:19;100591.17;;;1.43;68.51
39177;BME280;24904;52.208;21.192;2023-02-20T00:19:24;100586.33;;;1.43;68.51
39177;BME280;24904;52.208;21.192;2023-02-20T00:24:29;100576.25;;;1.38;68.36
39177;BME280;24904;52.208;21.192;2023-02-20T00:29:34;100569.92;;;1.40;68.26
39177;BME280;24904;52.208;21.192;2023-02-20T00:34:39;100574.33;;;1.44;68.31
39177;BME280;24904;52.208;21.192;2023-02-20T00:39:45;100568.44;;;1.52;68.08
39177;BME280;24904;52.208;21.192;2023-02-20T00:44:50;100571.96;;;1.56;67.83
39177;BME280;24904;52.208;21.192;2023-02-20T00:49:55;100582.68;;;1.58;67.59
39177;BME280;24904;52.208;21.192;2023-02-20T00:55:00;100586.05;;;1.64;67.65
39177;BME280;24904;52.208;21.192;2023-02-20T01:00:08;100587.39;;;1.64;67.00
39177;BME280;24904;52.208;21.192;2023-02-20T01:05:15;100579.44;;;1.72;67.18
39177;BME280;24904;52.208;21.192;2023-02-20T01:10:20;100574.20;;;1.79;66.66
39177;BME280;24904;52.208;21.192;2023-02-20T01:15:25;100575.15;;;1.83;66.29
39177;BME280;24904;52.208;21.192;2023-02-20T01:20:31;100574.92;;;1.86;66.33
39177;BME280;24904;52.208;21.192;2023-02-20T01:25:36;100572.83;;;1.87;66.22
39177;BME280;24904;52.208;21.192;2023-02-20T01:30:41;100560.05;;;1.92;66.44
39177;BME280;24904;52.208;21.192;2023-02-20T01:35:47;100554.42;;;1.94;66.17
39177;BME280;24904;52.208;21.192;2023-02-20T01:40:52;100550.44;;;1.91;65.82
39177;BME280;24904;52.208;21.192;2023-02-20T01:51:36;100563.08;;;1.89;65.85
39177;BME280;24904;52.208;21.192;2023-02-20T01:56:45;100561.45;;;1.85;66.00
39177;BME280;24904;52.208;21.192;2023-02-20T02:01:51;100548.84;;;1.88;66.08
39177;BME280;24904;52.208;21.192;2023-02-20T02:06:57;100546.99;;;1.92;66.11
39177;BME280;24904;52.208;21.192;2023-02-20T02:12:03;100554.16;;;1.98;66.18
39177;BME280;24904;52.208;21.192;2023-02-20T02:17:25;100545.19;;;1.95;66.02
39177;BME280;24904;52.208;21.192;2023-02-20T02:22:51;100533.05;;;1.93;66.35
39177;BME280;24904;52.208;21.192;2023-02-20T02:34:17;100534.42;;;1.96;66.15
39177;BME280;24904;52.208;21.192;2023-02-20T02:39:36;100536.95;;;1.97;65.99
39177;BME280;24904;52.208;21.192;2023-02-20T02:44:51;100534.74;;;2.01;66.16
39177;BME280;24904;52.208;21.192;2023-02-20T02:50:03;100527.58;;;2.08;66.15
39177;BME280;24904;52.208;21.192;2023-02-20T02:55:10;100524.96;;;2.07;65.94
39177;BME280;24904;52.208;21.192;2023-02-20T03:00:17;100532.98;;;2.03;66.11
39177;BME280;24904;52.208;21.192;2023-02-20T03:05:31;100532.52;;;2.08;66.13
39177;BME280;24904;52.208;21.192;2023-02-20T03:10:45;100532.87;;;2.09;66.05
39177;BME280;24904;52.208;21.192;2023-02-20T03:15:53;100526.99;;;2.12;65.95
39177;BME280;24904;52.208;21.192;2023-02-20T03:21:02;100537.30;;;2.13;66.03
39177;BME280;24904;52.208;21.192;2023-02-20T03:26:14;100536.70;;;2.12;66.17
39177;BME280;24904;52.208;21.192;2023-02-20T03:31:25;100531.46;;;2.13;66.10
39177;BME280;24904;52.208;21.192;2023-02-20T03:36:36;100531.55;;;2.12;66.08
39177;BME280;24904;52.208;21.192;2023-02-20T03:42:01;100530.29;;;2.05;66.15
39177;BME280;24904;52.208;21.192;2023-02-20T03:47:31;100530.83;;;2.06;66.16
39177;BME280;24904;52.208;21.192;2023-02-20T03:52:38;100531.52;;;2.01;66.46
39177;BME280;24904;52.208;21.192;2023-02-20T03:57:48;100525.18;;;2.02;66.54
39177;BME280;24904;52.208;21.192;2023-02-20T04:02:58;100521.64;;;1.99;66.45
39177;BME280;24904;52.208;21.192;2023-02-20T04:08:13;100519.05;;;1.98;66.25
39177;BME280;24904;52.208;21.192;2023-02-20T04:13:20;100522.34;;;1.94;66.49
39177;BME280;24904;52.208;21.192;2023-02-20T04:18:26;100516.74;;;1.95;66.61
39177;BME280;24904;52.208;21.192;2023-02-20T04:23:37;100512.02;;;1.95;66.52
39177;BME280;24904;52.208;21.192;2023-02-20T04:28:45;100502.40;;;1.95;66.68
39177;BME280;24904;52.208;21.192;2023-02-20T04:33:52;100504.57;;;1.93;66.51
39177;BME280;24904;52.208;21.192;2023-02-20T04:38:59;100503.42;;;1.93;66.68
39177;BME280;24904;52.208;21.192;2023-02-20T04:44:07;100490.84;;;1.92;66.59
39177;BME280;24904;52.208;21.192;2023-02-20T04:49:32;100482.08;;;1.92;66.82
39177;BME280;24904;52.208;21.192;2023-02-20T04:54:39;100477.27;;;1.97;66.84
39177;BME280;24904;52.208;21.192;2023-02-20T04:59:45;100478.66;;;1.98;66.72
39177;BME280;24904;52.208;21.192;2023-02-20T05:04:51;100477.55;;;1.99;67.06
39177;BME280;24904;52.208;21.192;2023-02-20T05:09:56;100475.20;;;2.03;67.03
39177;BME280;24904;52.208;21.192;2023-02-20T05:15:01;100474.23;;;2.03;67.11
39177;BME280;24904;52.208;21.192;2023-02-20T05:20:09;100460.29;;;2.07;67.24
39177;BME280;24904;52.208;21.192;2023-02-20T05:25:14;100459.41;;;2.13;67.38
39177;BME280;24904;52.208;21.192;2023-02-20T05:30:20;100451.98;;;2.15;67.23
39177;BME280;24904;52.208;21.192;2023-02-20T05:35:25;100453.04;;;2.21;67.51
39177;BME280;24904;52.208;21.192;2023-02-20T05:40:30;100459.83;;;2.21;67.57
39177;BME280;24904;52.208;21.192;2023-02-20T05:45:36;100455.33;;;2.21;67.58
39177;BME280;24904;52.208;21.192;2023-02-20T05:50:42;100446.27;;;2.23;67.76
39177;BME280;24904;52.208;21.192;2023-02-20T05:55:54;100436.45;;;2.31;67.71
39177;BME280;24904;52.208;21.192;2023-02-20T06:00:59;100432.33;;;2.32;67.68
39177;BME280;24904;52.208;21.192;2023-02-20T06:06:05;100423.50;;;2.34;67.70
39177;BME280;24904;52.208;21.192;2023-02-20T06:11:11;100422.73;;;2.36;67.89
39177;BME280;24904;52.208;21.192;2023-02-20T06:16:22;100426.13;;;2.36;67.66
39177;BME280;24904;52.208;21.192;2023-02-20T06:21:28;100424.20;;;2.39;67.72
39177;BME280;24904;52.208;21.192;2023-02-20T06:26:37;100418.31;;;2.39;67.77
39177;BME280;24904;52.208;21.192;2023-02-20T06:31:42;100415.70;;;2.43;67.61
39177;BME280;24904;52.208;21.192;2023-02-20T06:36:48;100407.96;;;2.45;67.92
39177;BME280;24904;52.208;21.192;2023-02-20T06:41:53;100406.75;;;2.56;67.86
39177;BME280;24904;52.208;21.192;2023-02-20T06:46:58;100391.84;;;2.64;67.96
39177;BME280;24904;52.208;21.192;2023-02-20T06:52:03;100391.52;;;2.65;67.72
39177;BME280;24904;52.208;21.192;2023-02-20T07:05:24;100378.14;;;2.83;67.87
39177;BME280;24904;52.208;21.192;2023-02-20T07:10:31;100380.02;;;2.87;68.19
39177;BME280;24904;52.208;21.192;2023-02-20T07:15:36;100383.73;;;2.94;68.15
39177;BME280;24904;52.208;21.192;2023-02-20T07:20:41;100364.21;;;3.06;67.97
39177;BME280;24904;52.208;21.192;2023-02-20T07:25:47;100356.95;;;3.10;68.01
39177;BME280;24904;52.208;21.192;2023-02-20T07:30:55;100352.71;;;3.22;68.26
39177;BME280;24904;52.208;21.192;2023-02-20T07:36:00;100356.20;;;3.30;67.95
39177;BME280;24904;52.208;21.192;2023-02-20T07:41:06;100356.49;;;3.34;67.99
39177;BME280;24904;52.208;21.192;2023-02-20T07:46:11;100360.15;;;3.34;68.06
39177;BME280;24904;52.208;21.192;2023-02-20T07:51:34;100356.71;;;3.39;68.07
39177;BME280;24904;52.208;21.192;2023-02-20T07:56:40;100337.15;;;3.44;68.53
39177;BME280;24904;52.208;21.192;2023-02-20T08:01:46;100321.61;;;3.54;68.12
39177;BME280;24904;52.208;21.192;2023-02-20T08:06:51;100300.03;;;3.60;68.23
39177;BME280;24904;52.208;21.192;2023-02-20T08:11:56;100287.66;;;3.61;67.97
39177;BME280;24904;52.208;21.192;2023-02-20T08:17:01;100277.41;;;3.65;68.11
39177;BME280;24904;52.208;21.192;2023-02-20T08:22:07;100272.54;;;3.69;68.28
39177;BME280;24904;52.208;21.192;2023-02-20T08:27:12;100260.20;;;3.79;68.30
39177;BME280;24904;52.208;21.192;2023-02-20T08:32:17;100258.98;;;3.84;68.46
39177;BME280;24904;52.208;21.192;2023-02-20T08:37:22;100246.67;;;3.94;68.42
39177;BME280;24904;52.208;21.192;2023-02-20T08:42:27;100235.36;;;4.01;68.64
39177;BME280;24904;52.208;21.192;2023-02-20T08:47:32;100230.56;;;4.04;68.79
39177;BME280;24904;52.208;21.192;2023-02-20T08:52:37;100219.31;;;3.97;69.65
39177;BME280;24904;52.208;21.192;2023-02-20T08:57:44;100217.08;;;3.89;69.82
39177;BME280;24904;52.208;21.192;2023-02-20T09:06:38;100206.45;;;3.67;71.16
39177;BME280;24904;52.208;21.192;2023-02-20T09:11:43;100183.13;;;3.50;72.46
39177;BME280;24904;52.208;21.192;2023-02-20T09:16:52;100160.23;;;3.39;73.11
39177;BME280;24904;52.208;21.192;2023-02-20T09:21:57;100140.13;;;3.33;74.00
39177;BME280;24904;52.208;21.192;2023-02-20T09:27:03;100119.68;;;3.35;74.38
39177;BME280;24904;52.208;21.192;2023-02-20T09:32:09;100116.54;;;3.45;74.50
39177;BME280;24904;52.208;21.192;2023-02-20T09:40:54;100099.23;;;3.55;75.01
39177;BME280;24904;52.208;21.192;2023-02-20T09:46:05;100073.80;;;3.60;75.32
39177;BME280;24904;52.208;21.192;2023-02-20T09:51:15;100052.65;;;3.64;75.23
39177;BME280;24904;52.208;21.192;2023-02-20T09:56:22;100033.17;;;3.63;75.08
39177;BME280;24904;52.208;21.192;2023-02-20T10:01:30;100012.52;;;3.60;75.56
39177;BME280;24904;52.208;21.192;2023-02-20T10:06:36;100001.88;;;3.60;75.89
39177;BME280;24904;52.208;21.192;2023-02-20T10:12:02;99973.86;;;3.59;76.11
39177;BME280;24904;52.208;21.192;2023-02-20T10:17:18;99970.20;;;3.62;76.35
39177;BME280;24904;52.208;21.192;2023-02-20T10:22:29;99960.01;;;3.55;76.39
39177;BME280;24904;52.208;21.192;2023-02-20T10:27:45;99941.59;;;3.42;75.60
39177;BME280;24904;52.208;21.192;2023-02-20T10:33:00;99928.38;;;3.29;75.92
39177;BME280;24904;52.208;21.192;2023-02-20T10:38:09;99922.71;;;3.24;76.02
39177;BME280;24904;52.208;21.192;2023-02-20T10:43:22;99919.79;;;3.18;75.86
39177;BME280;24904;52.208;21.192;2023-02-20T10:48:31;99902.91;;;3.12;76.11
39177;BME280;24904;52.208;21.192;2023-02-20T10:53:42;99894.06;;;3.04;76.38
39177;BME280;24904;52.208;21.192;2023-02-20T10:58:54;99886.73;;;2.98;76.47
39177;BME280;24904;52.208;21.192;2023-02-20T11:04:03;99871.46;;;2.91;76.93
39177;BME280;24904;52.208;21.192;2023-02-20T11:09:12;99855.48;;;2.86;77.57
39177;BME280;24904;52.208;21.192;2023-02-20T11:14:27;99838.98;;;2.81;77.33
39177;BME280;24904;52.208;21.192;2023-02-20T11:19:40;99825.21;;;2.72;77.67
39177;BME280;24904;52.208;21.192;2023-02-20T11:24:46;99808.90;;;2.71;77.84
39177;BME280;24904;52.208;21.192;2023-02-20T11:29:55;99775.40;;;2.67;77.58
39177;BME280;24904;52.208;21.192;2023-02-20T11:35:30;99719.44;;;2.63;77.76
39177;BME280;24904;52.208;21.192;2023-02-20T11:40:37;99684.23;;;2.62;77.99
39177;BME280;24904;52.208;21.192;2023-02-20T11:45:42;99674.23;;;2.61;78.25
39177;BME280;24904;52.208;21.192;2023-02-20T11:50:51;99634.79;;;2.65;78.80
39177;BME280;24904;52.208;21.192;2023-02-20T12:03:38;99589.98;;;2.95;79.46
39177;BME280;24904;52.208;21.192;2023-02-20T12:08:50;99580.21;;;3.03;79.77
39177;BME280;24904;52.208;21.192;2023-02-20T12:13:58;99551.98;;;3.13;80.28
39177;BME280;24904;52.208;21.192;2023-02-20T12:19:10;99528.61;;;3.23;80.43
39177;BME280;24904;52.208;21.192;2023-02-20T12:24:33;99496.95;;;3.35;80.79
39177;BME280;24904;52.208;21.192;2023-02-20T12:29:48;99481.05;;;3.46;80.82
39177;BME280;24904;52.208;21.192;2023-02-20T12:35:23;99470.39;;;3.60;81.22
39177;BME280;24904;52.208;21.192;2023-02-20T12:40:50;99467.36;;;3.76;81.32
39177;BME280;24904;52.208;21.192;2023-02-20T12:46:05;99450.62;;;3.91;81.55
39177;BME280;24904;52.208;21.192;2023-02-20T12:51:20;99465.91;;;4.01;81.64
39177;BME280;24904;52.208;21.192;2023-02-20T12:56:38;99469.23;;;4.09;81.97
39177;BME280;24904;52.208;21.192;2023-02-20T13:01:48;99462.52;;;4.19;81.99
39177;BME280;24904;52.208;21.192;2023-02-20T13:07:02;99455.66;;;4.29;82.07
39177;BME280;24904;52.208;21.192;2023-02-20T13:12:12;99472.10;;;4.38;82.06
39177;BME280;24904;52.208;21.192;2023-02-20T13:17:28;99474.88;;;4.45;81.84
39177;BME280;24904;52.208;21.192;2023-02-20T13:22:34;99455.17;;;4.54;82.25
39177;BME280;24904;52.208;21.192;2023-02-20T13:27:40;99447.81;;;4.59;82.00
39177;BME280;24904;52.208;21.192;2023-02-20T13:32:45;99440.73;;;4.66;81.68
39177;BME280;24904;52.208;21.192;2023-02-20T13:37:55;99428.94;;;4.75;81.73
39177;BME280;24904;52.208;21.192;2023-02-20T13:43:28;99421.66;;;4.84;81.70
39177;BME280;24904;52.208;21.192;2023-02-20T13:48:42;99404.33;;;4.92;81.69
39177;BME280;24904;52.208;21.192;2023-02-20T13:53:50;99388.65;;;5.03;81.61
39177;BME280;24904;52.208;21.192;2023-02-20T13:58:58;99375.14;;;5.13;81.30
39177;BME280;24904;52.208;21.192;2023-02-20T14:04:04;99375.53;;;5.22;81.21
39177;BME280;24904;52.208;21.192;2023-02-20T14:09:14;99361.92;;;5.31;80.99
39177;BME280;24904;52.208;21.192;2023-02-20T14:14:27;99366.41;;;5.46;80.69
39177;BME280;24904;52.208;21.192;2023-02-20T14:19:37;99356.23;;;5.56;80.61
39177;BME280;24904;52.208;21.192;2023-02-20T14:24:43;99345.11;;;5.68;80.72
39177;BME280;24904;52.208;21.192;2023-02-20T14:30:04;99342.96;;;5.76;80.35
39177;BME280;24904;52.208;21.192;2023-02-20T14:35:24;99329.64;;;5.86;80.07
39177;BME280;24904;52.208;21.192;2023-02-20T14:40:36;99324.51;;;5.95;79.97
39177;BME280;24904;52.208;21.192;2023-02-20T14:45:44;99312.08;;;6.05;79.54
39177;BME280;24904;52.208;21.192;2023-02-20T14:51:04;99286.73;;;6.15;79.40
39177;BME280;24904;52.208;21.192;2023-02-20T14:56:14;99272.97;;;6.23;79.03
39177;BME280;24904;52.208;21.192;2023-02-20T15:01:33;99273.41;;;6.35;78.81
39177;BME280;24904;52.208;21.192;2023-02-20T15:06:44;99263.77;;;6.45;78.45
39177;BME280;24904;52.208;21.192;2023-02-20T15:11:52;99252.77;;;6.52;78.25
39177;BME280;24904;52.208;21.192;2023-02-20T15:17:22;99241.44;;;6.58;77.98
39177;BME280;24904;52.208;21.192;2023-02-20T15:22:31;99232.48;;;6.66;77.74
39177;BME280;24904;52.208;21.192;2023-02-20T15:27:36;99242.27;;;6.73;77.71
39177;BME280;24904;52.208;21.192;2023-02-20T15:32:49;99240.94;;;6.80;77.38
39177;BME280;24904;52.208;21.192;2023-02-20T15:37:57;99224.62;;;6.89;77.27
39177;BME280;24904;52.208;21.192;2023-02-20T15:43:09;99226.94;;;6.95;77.07
39177;BME280;24904;52.208;21.192;2023-02-20T15:48:14;99232.66;;;7.01;77.02
39177;BME280;24904;52.208;21.192;2023-02-20T15:53:22;99242.52;;;7.05;76.73
39177;BME280;24904;52.208;21.192;2023-02-20T15:58:29;99225.70;;;7.09;76.36
39177;BME280;24904;52.208;21.192;2023-02-20T16:03:35;99208.80;;;7.12;76.30
39177;BME280;24904;52.208;21.192;2023-02-20T16:08:40;99203.92;;;7.18;76.15
39177;BME280;24904;52.208;21.192;2023-02-20T16:13:48;99196.70;;;7.22;75.87
39177;BME280;24904;52.208;21.192;2023-02-20T16:18:55;99186.82;;;7.30;75.71
39177;BME280;24904;52.208;21.192;2023-02-20T16:24:00;99190.61;;;7.37;75.13
39177;BME280;24904;52.208;21.192;2023-02-20T16:29:07;99190.32;;;7.42;74.95
39177;BME280;24904;52.208;21.192;2023-02-20T16:34:13;99182.15;;;7.47;74.64
39177;BME280;24904;52.208;21.192;2023-02-20T16:39:18;99168.04;;;7.51;74.48
39177;BME280;24904;52.208;21.192;2023-02-20T16:44:26;99165.40;;;7.55;74.48
39177;BME280;24904;52.208;21.192;2023-02-20T16:49:33;99161.81;;;7.57;74.28
39177;BME280;24904;52.208;21.192;2023-02-20T16:54:40;99173.48;;;7.62;74.37
39177;BME280;24904;52.208;21.192;2023-02-20T16:59:47;99166.29;;;7.62;75.23
39177;BME280;24904;52.208;21.192;2023-02-20T17:11:17;99169.94;;;7.40;77.21
39177;BME280;24904;52.208;21.192;2023-02-20T17:16:22;99169.02;;;7.29;78.03
39177;BME280;24904;52.208;21.192;2023-02-20T17:21:27;99165.26;;;7.20;78.68
39177;BME280;24904;52.208;21.192;2023-02-20T17:26:35;99154.13;;;7.15;78.92
39177;BME280;24904;52.208;21.192;2023-02-20T17:31:40;99149.30;;;7.12;79.35
39177;BME280;24904;52.208;21.192;2023-02-20T17:36:45;99143.75;;;7.11;79.46
39177;BME280;24904;52.208;21.192;2023-02-20T17:41:52;99138.61;;;7.13;79.84
39177;BME280;24904;52.208;21.192;2023-02-20T17:46:59;99133.08;;;7.14;79.88
39177;BME280;24904;52.208;21.192;2023-02-20T17:52:05;99123.48;;;7.16;79.93
39177;BME280;24904;52.208;21.192;2023-02-20T17:57:10;99107.84;;;7.20;79.81
39177;BME280;24904;52.208;21.192;2023-02-20T18:02:16;99105.75;;;7.21;80.13
39177;BME280;24904;52.208;21.192;2023-02-20T18:15:00;99101.55;;;7.25;80.24
39177;BME280;24904;52.208;21.192;2023-02-20T18:20:04;99113.09;;;7.23;80.71
39177;BME280;24904;52.208;21.192;2023-02-20T18:25:09;99119.86;;;7.24;81.21
39177;BME280;24904;52.208;21.192;2023-02-20T18:30:12;99112.92;;;7.21;81.56
39177;BME280;24904;52.208;21.192;2023-02-20T18:35:16;99114.52;;;7.18;81.76
39177;BME280;24904;52.208;21.192;2023-02-20T18:40:20;99101.96;;;7.13;82.48
39177;BME280;24904;52.208;21.192;2023-02-20T18:45:24;99091.89;;;7.11;83.01
39177;BME280;24904;52.208;21.192;2023-02-20T18:50:28;99087.36;;;7.08;83.23
39177;BME280;24904;52.208;21.192;2023-02-20T18:55:31;99093.59;;;7.05;83.95
39177;BME280;24904;52.208;21.192;2023-02-20T19:00:34;99095.31;;;7.06;84.24
39177;BME280;24904;52.208;21.192;2023-02-20T19:05:37;99096.79;;;7.07;84.39
39177;BME280;24904;52.208;21.192;2023-02-20T19:10:40;99102.33;;;7.08;84.34
39177;BME280;24904;52.208;21.192;2023-02-20T19:15:43;99106.40;;;7.13;84.47
39177;BME280;24904;52.208;21.192;2023-02-20T19:20:46;99107.11;;;7.14;84.71
39177;BME280;24904;52.208;21.192;2023-02-20T19:25:49;99106.02;;;7.15;85.07
39177;BME280;24904;52.208;21.192;2023-02-20T19:30:52;99102.58;;;7.13;85.28
39177;BME280;24904;52.208;21.192;2023-02-20T19:35:55;99103.43;;;7.11;85.64
39177;BME280;24904;52.208;21.192;2023-02-20T19:40:58;99098.59;;;7.09;86.51
39177;BME280;24904;52.208;21.192;2023-02-20T19:46:01;99092.82;;;7.09;86.20
39177;BME280;24904;52.208;21.192;2023-02-20T19:51:07;99096.33;;;7.10;86.71
39177;BME280;24904;52.208;21.192;2023-02-20T19:56:11;99087.92;;;7.11;86.63
39177;BME280;24904;52.208;21.192;2023-02-20T20:01:15;99078.95;;;7.13;86.74
39177;BME280;24904;52.208;21.192;2023-02-20T20:06:21;99073.10;;;7.13;86.49
39177;BME280;24904;52.208;21.192;2023-02-20T20:11:26;99073.49;;;7.16;86.84
39177;BME280;24904;52.208;21.192;2023-02-20T20:16:30;99068.61;;;7.19;86.45
39177;BME280;24904;52.208;21.192;2023-02-20T20:21:35;99069.70;;;7.19;86.83
39177;BME280;24904;52.208;21.192;2023-02-20T20:26:39;99063.13;;;7.18;86.83
39177;BME280;24904;52.208;21.192;2023-02-20T20:31:42;99057.77;;;7.18;86.87
39177;BME280;24904;52.208;21.192;2023-02-20T20:36:45;99069.67;;;7.16;87.06
39177;BME280;24904;52.208;21.192;2023-02-20T20:41:48;99072.25;;;7.17;87.42
39177;BME280;24904;52.208;21.192;2023-02-20T20:46:51;99077.78;;;7.13;88.03
39177;BME280;24904;52.208;21.192;2023-02-20T20:51:54;99073.73;;;7.12;87.88
39177;BME280;24904;52.208;21.192;2023-02-20T20:56:57;99071.54;;;7.14;88.08
39177;BME280;24904;52.208;21.192;2023-02-20T21:02:00;99074.42;;;7.15;87.89
39177;BME280;24904;52.208;21.192;2023-02-20T21:07:03;99080.36;;;7.17;87.86
39177;BME280;24904;52.208;21.192;2023-02-20T21:12:07;99074.15;;;7.20;87.77
39177;BME280;24904;52.208;21.192;2023-02-20T21:17:11;99077.28;;;7.21;87.65
39177;BME280;24904;52.208;21.192;2023-02-20T21:22:14;99079.70;;;7.24;87.57
39177;BME280;24904;52.208;21.192;2023-02-20T21:27:17;99087.27;;;7.23;87.62
39177;BME280;24904;52.208;21.192;2023-02-20T21:32:21;99089.06;;;7.21;87.59
39177;BME280;24904;52.208;21.192;2023-02-20T21:37:24;99095.52;;;7.20;87.44
39177;BME280;24904;52.208;21.192;2023-02-20T21:42:28;99088.50;;;7.19;87.34
39177;BME280;24904;52.208;21.192;2023-02-20T21:47:49;99080.79;;;7.20;87.14
39177;BME280;24904;52.208;21.192;2023-02-20T21:52:52;99080.16;;;7.24;86.95
39177;BME280;24904;52.208;21.192;2023-02-20T21:57:55;99085.63;;;7.25;86.78
39177;BME280;24904;52.208;21.192;2023-02-20T22:02:58;99084.07;;;7.24;86.59
39177;BME280;24904;52.208;21.192;2023-02-20T22:08:01;99073.93;;;7.24;86.52
39177;BME280;24904;52.208;21.192;2023-02-20T22:13:22;99073.54;;;7.25;86.53
39177;BME280;24904;52.208;21.192;2023-02-20T22:18:42;99073.47;;;7.24;86.33
39177;BME280;24904;52.208;21.192;2023-02-20T22:24:04;99080.17;;;7.28;86.12
39177;BME280;24904;52.208;21.192;2023-02-20T22:29:25;99089.06;;;7.30;85.79
39177;BME280;24904;52.208;21.192;2023-02-20T22:34:46;99090.90;;;7.34;85.36
39177;BME280;24904;52.208;21.192;2023-02-20T22:40:08;99094.80;;;7.38;84.91
39177;BME280;24904;52.208;21.192;2023-02-20T22:45:30;99088.95;;;7.43;84.57
39177;BME280;24904;52.208;21.192;2023-02-20T22:50:51;99087.98;;;7.47;84.41
39177;BME280;24904;52.208;21.192;2023-02-20T22:56:17;99094.77;;;7.51;84.37
39177;BME280;24904;52.208;21.192;2023-02-20T23:01:38;99093.59;;;7.51;84.07
39177;BME280;24904;52.208;21.192;2023-02-20T23:06:59;99095.40;;;7.54;83.73
39177;BME280;24904;52.208;21.192;2023-02-20T23:12:20;99088.52;;;7.55;83.77
39177;BME280;24904;52.208;21.192;2023-02-20T23:17:42;99085.33;;;7.54;83.57
39177;BME280;24904;52.208;21.192;2023-02-20T23:23:04;99095.77;;;7.53;83.24
39177;BME280;24904;52.208;21.192;2023-02-20T23:28:25;99107.88;;;7.50;83.09
39177;BME280;24904;52.208;21.192;2023-02-20T23:33:46;99111.82;;;7.45;83.21
39177;BME280;24904;52.208;21.192;2023-02-20T23:39:07;99119.61;;;7.36;83.01
39177;BME280;24904;52.208;21.192;2023-02-20T23:44:28;99111.68;;;7.26;83.18
39177;BME280;24904;52.208;21.192;2023-02-20T23:49:49;99116.61;;;7.10;83.63
39177;BME280;24904;52.208;21.192;2023-02-20T23:55:10;99121.61;;;6.97;84.38
